Time;durP1;ratioP1;P1;durP2;ratioP2;P2;SDS_P1;SDS_P2;PMS_P1;PMS_P2;Temp;Humidity;BMP_temperature;BMP_pressure;BME280_temperature;BME280_humidity;BME280_pressure;Samples;Min_cycle;Max_cycle;Signal;HPM_P1;HPM_P2
2022/06/24 00:00:33;;;;;;;21.90;9.90;;;;;;;13.80;47.50;99031.72;105895;1276;98044;-66
2022/06/24 00:03:16;;;;;;;23.40;10.60;;;;;;;13.69;47.74;99032.81;105995;1276;97966;-68
2022/06/24 00:05:48;;;;;;;20.90;9.20;;;;;;;13.59;48.51;99026.91;105972;1276;111508;-68
2022/06/24 00:08:18;;;;;;;25.60;10.40;;;;;;;13.56;48.80;99024.48;105965;1276;95285;-66
2022/06/24 00:10:46;;;;;;;24.40;10.00;;;;;;;13.57;48.96;99019.98;105946;1277;108176;-69
2022/06/24 00:13:15;;;;;;;22.60;9.80;;;;;;;13.58;49.14;99023.64;105959;1277;96641;-68
2022/06/24 00:15:43;;;;;;;20.50;8.50;;;;;;;13.61;49.30;99024.98;105859;1277;95741;-66
2022/06/24 00:18:19;;;;;;;22.00;9.80;;;;;;;13.64;49.37;99025.59;105811;1277;111958;-66
2022/06/24 00:20:50;;;;;;;22.70;8.50;;;;;;;13.65;49.40;99024.02;105827;1277;97872;-66
2022/06/24 00:23:22;;;;;;;19.40;7.40;;;;;;;13.66;49.43;99018.05;105789;1277;108434;-66
2022/06/24 00:25:52;;;;;;;21.10;8.00;;;;;;;13.66;49.48;99018.44;105868;1278;97993;-66
2022/06/24 00:28:26;;;;;;;18.70;7.40;;;;;;;13.65;49.58;99019.63;105877;1276;97797;-68
2022/06/24 00:30:56;;;;;;;20.90;8.80;;;;;;;13.64;49.68;99019.34;105938;1276;111399;-67
2022/06/24 00:33:31;;;;;;;19.80;8.00;;;;;;;13.64;49.91;99020.77;106005;1276;96475;-68
2022/06/24 00:36:01;;;;;;;22.60;9.40;;;;;;;13.64;50.01;99025.00;105910;1276;107886;-67
2022/06/24 00:38:33;;;;;;;22.10;9.50;;;;;;;13.62;49.29;99025.73;105901;1276;97862;-67
2022/06/24 00:41:06;;;;;;;21.70;8.70;;;;;;;13.56;49.74;99025.68;105913;1276;98477;-67
2022/06/24 00:43:43;;;;;;;21.20;8.20;;;;;;;13.53;50.19;99025.58;105917;1276;111447;-67
2022/06/24 00:46:14;;;;;;;17.40;6.30;;;;;;;13.53;50.33;99028.59;105921;1276;98489;-68
2022/06/24 00:48:51;;;;;;;18.10;7.40;;;;;;;13.53;50.30;99024.54;105916;1276;107764;-66
2022/06/24 00:51:22;;;;;;;21.60;8.60;;;;;;;13.52;50.48;99021.94;105903;1276;97845;-67
2022/06/24 00:53:55;;;;;;;23.80;8.40;;;;;;;13.53;50.55;99024.34;105923;1276;97870;-67
2022/06/24 00:56:28;;;;;;;19.50;8.30;;;;;;;13.52;50.16;99023.36;105966;1276;111375;-66
2022/06/24 00:59:01;;;;;;;19.80;8.10;;;;;;;13.48;50.44;99019.60;105965;1276;97944;-67
2022/06/24 01:01:38;;;;;;;19.70;8.20;;;;;;;13.44;50.59;99017.67;105922;1276;106359;-68
2022/06/24 01:04:10;;;;;;;19.70;8.40;;;;;;;13.44;50.95;99012.98;105907;1276;98006;-66
2022/06/24 01:06:44;;;;;;;19.90;8.70;;;;;;;13.45;50.85;99014.70;105888;1276;97887;-67
2022/06/24 01:09:16;;;;;;;20.50;7.90;;;;;;;13.43;50.68;99010.64;105920;1276;111386;-67
2022/06/24 01:11:50;;;;;;;19.00;7.40;;;;;;;13.41;51.21;99008.29;105945;1276;97916;-67
2022/06/24 01:14:18;;;;;;;20.00;8.60;;;;;;;13.41;51.28;99004.15;105900;1276;107723;-66
2022/06/24 01:16:47;;;;;;;18.70;7.30;;;;;;;13.40;51.37;99006.73;105853;1276;96266;-66
2022/06/24 01:19:18;;;;;;;18.20;7.40;;;;;;;13.37;51.33;99008.02;105963;1276;97964;-70
2022/06/24 01:21:51;;;;;;;18.50;7.70;;;;;;;13.36;51.40;99004.61;105881;1276;112659;-67
2022/06/24 01:24:25;;;;;;;18.80;7.50;;;;;;;13.35;51.53;99005.16;105868;1276;97944;-71
2022/06/24 01:26:56;;;;;;;20.90;7.90;;;;;;;13.36;51.74;99004.58;105851;1278;106945;-66
2022/06/24 01:29:27;;;;;;;18.70;7.10;;;;;;;13.36;51.70;98999.43;105874;1278;97973;-67
2022/06/24 01:31:55;;;;;;;19.40;7.80;;;;;;;13.36;51.75;99001.90;105876;1278;98644;-67
2022/06/24 01:34:24;;;;;;;17.70;7.20;;;;;;;13.35;51.80;99001.60;105880;1276;112221;-67
2022/06/24 01:36:53;;;;;;;22.50;7.70;;;;;;;13.35;51.82;99004.33;105933;1276;96288;-67
2022/06/24 01:39:22;;;;;;;18.90;7.70;;;;;;;13.33;51.86;99005.54;105860;1276;108567;-67
2022/06/24 01:41:54;;;;;;;18.10;7.60;;;;;;;13.32;51.99;99006.16;105849;1278;97965;-67
2022/06/24 01:44:25;;;;;;;18.10;7.90;;;;;;;13.31;52.08;99003.20;105950;1276;97883;-68
2022/06/24 01:46:55;;;;;;;17.90;7.30;;;;;;;13.31;52.04;99003.98;105838;1276;111471;-67
2022/06/24 01:49:25;;;;;;;18.00;7.30;;;;;;;13.28;52.19;99004.16;105927;1279;97952;-66
2022/06/24 01:51:56;;;;;;;18.00;7.20;;;;;;;13.25;52.27;99002.48;105947;1278;108615;-69
2022/06/24 01:54:24;;;;;;;17.60;7.40;;;;;;;13.21;52.27;99004.96;105863;1278;97882;-68
2022/06/24 01:56:56;;;;;;;18.50;6.90;;;;;;;13.18;52.42;99004.33;105921;1276;95730;-68
2022/06/24 01:59:26;;;;;;;16.40;6.70;;;;;;;13.15;52.48;99003.34;105867;1276;112034;-69
2022/06/24 02:01:54;;;;;;;20.40;7.90;;;;;;;13.12;52.47;99002.84;105851;1279;97862;-67
2022/06/24 02:04:22;;;;;;;18.10;7.40;;;;;;;13.10;52.54;99004.23;105924;1276;107812;-66
2022/06/24 02:06:51;;;;;;;19.10;7.70;;;;;;;13.06;52.22;99008.11;105918;1279;98538;-67
2022/06/24 02:09:21;;;;;;;17.50;7.70;;;;;;;12.99;51.95;99006.45;105853;1278;98714;-67
2022/06/24 02:14:40;;;;;;;16.50;7.90;;;;;;;12.66;52.17;99001.50;105957;1276;95638;-67
2022/06/24 02:17:15;;;;;;;20.20;7.50;;;;;;;12.55;52.75;99001.87;105899;1276;108593;-67
2022/06/24 02:19:43;;;;;;;17.10;7.10;;;;;;;12.52;53.08;99005.48;105859;1276;97973;-67
2022/06/24 02:22:13;;;;;;;19.00;7.60;;;;;;;12.50;53.05;99001.35;105925;1276;97848;-66
2022/06/24 02:24:45;;;;;;;17.30;7.70;;;;;;;12.48;53.16;99006.30;105916;1276;112092;-66
2022/06/24 02:27:13;;;;;;;18.60;7.10;;;;;;;12.45;52.74;99007.28;105904;1276;97197;-68
2022/06/24 02:29:43;;;;;;;20.00;7.80;;;;;;;12.36;53.08;99010.48;105914;1276;107594;-66
2022/06/24 02:32:13;;;;;;;19.30;8.20;;;;;;;12.22;53.45;99015.19;105995;1276;97870;-68
2022/06/24 02:34:40;;;;;;;21.40;8.60;;;;;;;12.07;53.57;99010.52;105983;1276;98009;-66
2022/06/24 02:37:09;;;;;;;20.70;9.00;;;;;;;11.96;53.83;99012.58;105949;1276;111922;-66
2022/06/24 02:39:37;;;;;;;21.20;9.20;;;;;;;11.87;53.98;99013.48;105972;1276;97954;-67
2022/06/24 02:42:05;;;;;;;20.60;9.30;;;;;;;11.77;53.99;99006.95;106006;1276;108269;-66
2022/06/24 02:44:33;;;;;;;21.80;8.20;;;;;;;11.72;54.39;99007.67;105949;1276;97899;-66
2022/06/24 02:47:01;;;;;;;21.30;8.60;;;;;;;11.72;54.80;99007.12;105982;1276;97873;-68
2022/06/24 02:49:29;;;;;;;18.40;8.20;;;;;;;11.77;54.90;99013.15;106011;1276;112308;-68
2022/06/24 02:51:57;;;;;;;18.80;8.20;;;;;;;11.82;55.01;99017.95;105997;1276;97887;-68
2022/06/24 02:54:27;;;;;;;19.50;8.80;;;;;;;11.88;55.10;99022.08;106034;1276;108202;-68
2022/06/24 02:56:57;;;;;;;17.50;7.60;;;;;;;11.92;54.84;99028.48;105935;1276;97904;-68
2022/06/24 02:59:25;;;;;;;18.30;7.70;;;;;;;11.93;54.50;99031.13;105991;1276;97935;-66
2022/06/24 03:01:53;;;;;;;21.60;8.30;;;;;;;11.88;54.52;99032.20;105990;1276;112081;-67
2022/06/24 03:04:22;;;;;;;18.70;7.30;;;;;;;11.84;54.73;99037.13;105950;1276;97917;-65
2022/06/24 03:06:52;;;;;;;16.70;7.10;;;;;;;11.81;54.51;99037.23;105905;1276;109013;-66
2022/06/24 03:09:20;;;;;;;18.90;7.60;;;;;;;11.76;54.84;99035.31;105930;1276;97954;-68
2022/06/24 03:11:50;;;;;;;20.30;8.00;;;;;;;11.68;54.97;99041.21;105990;1276;95280;-66
2022/06/24 03:14:19;;;;;;;17.00;6.90;;;;;;;11.64;55.28;99044.40;106017;1276;111663;-68
2022/06/24 03:16:47;;;;;;;18.10;7.60;;;;;;;11.57;55.86;99043.86;105961;1276;97986;-67
2022/06/24 03:19:17;;;;;;;17.10;7.50;;;;;;;11.48;55.96;99042.20;105973;1276;108407;-69
2022/06/24 03:21:45;;;;;;;16.80;7.80;;;;;;;11.45;56.66;99047.37;105975;1276;97854;-69
2022/06/24 03:24:12;;;;;;;20.60;8.60;;;;;;;11.40;56.49;99049.95;105954;1276;98592;-68
2022/06/24 03:26:41;;;;;;;16.20;7.20;;;;;;;11.38;56.59;99041.91;105930;1276;112516;-67
2022/06/24 03:29:14;;;;;;;17.00;8.00;;;;;;;11.43;56.88;99046.64;105951;1276;95242;-68
2022/06/24 03:31:42;;;;;;;19.00;7.90;;;;;;;11.52;57.14;99045.82;105950;1276;108405;-66
2022/06/24 03:34:11;;;;;;;17.00;6.80;;;;;;;11.61;57.02;99046.37;105982;1276;97963;-67
2022/06/24 03:36:41;;;;;;;19.00;6.80;;;;;;;11.70;57.00;99043.91;105968;1276;97784;-67
2022/06/24 03:39:11;;;;;;;17.20;6.80;;;;;;;11.81;56.80;99049.44;105896;1276;111187;-67
2022/06/24 03:41:41;;;;;;;16.70;6.30;;;;;;;11.93;56.96;99050.15;105956;1276;97879;-68
2022/06/24 03:44:11;;;;;;;13.90;5.70;;;;;;;12.03;57.19;99049.91;105949;1276;108309;-67
2022/06/24 03:46:39;;;;;;;13.30;5.40;;;;;;;12.14;56.98;99050.15;104561;1276;1840885;-69
2022/06/24 03:49:09;;;;;;;17.90;5.60;;;;;;;12.25;57.11;99053.48;105951;1276;97904;-70
2022/06/24 03:51:38;;;;;;;11.50;5.40;;;;;;;12.36;57.09;99054.04;105954;1276;111953;-68
2022/06/24 03:54:08;;;;;;;14.40;6.30;;;;;;;12.47;56.91;99055.65;105996;1276;97852;-68
2022/06/24 03:56:39;;;;;;;12.70;5.50;;;;;;;12.56;56.91;99055.52;105925;1276;107772;-67
2022/06/24 03:59:13;;;;;;;14.60;5.40;;;;;;;12.62;57.10;99051.96;105918;1276;97961;-67
2022/06/24 04:01:42;;;;;;;12.70;5.30;;;;;;;12.65;57.14;99053.65;106040;1276;97875;-68
2022/06/24 04:04:15;;;;;;;13.50;5.70;;;;;;;12.70;57.38;99050.96;106020;1278;111409;-68
2022/06/24 04:06:44;;;;;;;12.70;5.30;;;;;;;12.75;57.49;99052.56;105904;1278;95384;-67
2022/06/24 04:09:14;;;;;;;11.80;5.50;;;;;;;12.80;57.73;99053.89;105977;1279;108567;-68
2022/06/24 04:11:42;;;;;;;15.60;5.90;;;;;;;12.87;57.81;99059.55;105978;1278;97998;-68
2022/06/24 04:14:10;;;;;;;16.10;5.90;;;;;;;12.95;57.77;99066.77;105910;1278;99331;-67
2022/06/24 04:16:38;;;;;;;14.40;6.20;;;;;;;13.03;57.84;99069.67;105916;1279;112029;-68
2022/06/24 04:19:08;;;;;;;15.30;6.00;;;;;;;13.11;57.68;99071.34;105958;1279;97864;-69
2022/06/24 04:21:38;;;;;;;14.00;5.30;;;;;;;13.17;57.71;99071.89;105933;1278;108293;-70
2022/06/24 04:24:08;;;;;;;13.00;5.80;;;;;;;13.22;57.61;99075.91;105949;1277;95361;-66
2022/06/24 04:26:36;;;;;;;13.20;5.80;;;;;;;13.26;57.93;99078.42;105952;1278;95420;-69
2022/06/24 04:29:13;;;;;;;15.20;5.90;;;;;;;13.32;58.12;99080.27;106010;1279;112017;-71
2022/06/24 04:31:42;;;;;;;13.80;5.90;;;;;;;13.40;58.03;99079.77;105957;1276;95827;-68
2022/06/24 04:34:10;;;;;;;11.70;5.30;;;;;;;13.49;58.19;99077.41;106057;1276;107774;-66
2022/06/24 04:36:40;;;;;;;11.40;5.20;;;;;;;13.59;58.06;99071.39;105975;1276;97867;-68
2022/06/24 04:39:09;;;;;;;15.30;5.60;;;;;;;13.71;58.26;99073.44;106118;1276;97878;-68
2022/06/24 04:41:39;;;;;;;15.70;5.50;;;;;;;13.82;58.40;99075.55;106100;1277;112029;-67
2022/06/24 04:44:08;;;;;;;14.40;6.20;;;;;;;13.92;58.28;99081.66;106072;1276;96300;-69
2022/06/24 04:46:36;;;;;;;14.30;5.70;;;;;;;14.01;58.42;99083.88;105971;1276;108154;-68
2022/06/24 04:49:06;;;;;;;15.20;5.90;;;;;;;14.10;58.29;99086.28;105975;1276;98053;-68
2022/06/24 04:51:34;;;;;;;14.40;5.70;;;;;;;14.20;58.32;99090.34;105944;1276;98599;-67
2022/06/24 04:54:04;;;;;;;13.10;4.70;;;;;;;14.28;58.42;99082.75;106039;1276;111425;-68
2022/06/24 04:56:33;;;;;;;13.10;5.10;;;;;;;14.38;58.57;99080.70;106007;1276;95370;-67
2022/06/24 04:59:01;;;;;;;12.00;5.20;;;;;;;14.45;58.66;99081.81;105972;1276;108324;-68
2022/06/24 05:01:29;;;;;;;12.60;5.50;;;;;;;14.56;58.65;99083.58;106021;1276;98057;-68
2022/06/24 05:04:03;;;;;;;12.80;5.10;;;;;;;14.67;58.76;99082.20;106028;1276;96714;-69
2022/06/24 05:06:33;;;;;;;11.40;4.60;;;;;;;14.79;58.68;99084.02;106083;1276;111455;-68
2022/06/24 05:09:01;;;;;;;10.20;4.60;;;;;;;14.91;58.73;99081.20;105980;1276;97083;-68
2022/06/24 05:11:29;;;;;;;10.50;4.70;;;;;;;15.03;58.62;99077.62;105997;1276;108467;-69
2022/06/24 05:13:58;;;;;;;12.50;5.00;;;;;;;15.13;58.65;99079.70;105929;1276;97889;-67
2022/06/24 05:16:25;;;;;;;13.00;5.10;;;;;;;15.25;58.88;99079.06;105963;1276;96593;-66
2022/06/24 05:19:06;;;;;;;15.50;5.80;;;;;;;15.33;58.87;99077.16;105852;1276;112161;-67
2022/06/24 05:21:34;;;;;;;14.90;5.70;;;;;;;15.42;58.83;99078.74;105969;1276;97865;-70
2022/06/24 05:24:03;;;;;;;13.70;5.50;;;;;;;15.52;58.69;99076.35;105939;1276;107759;-68
2022/06/24 05:26:33;;;;;;;14.70;5.60;;;;;;;15.62;58.82;99077.20;105917;1276;95279;-68
2022/06/24 05:29:01;;;;;;;14.80;5.40;;;;;;;15.71;58.62;99075.64;105921;1276;97998;-69
2022/06/24 05:31:29;;;;;;;20.00;9.30;;;;;;;15.83;58.72;99075.06;105920;1276;111723;-67
2022/06/24 05:33:57;;;;;;;17.10;6.30;;;;;;;15.95;58.66;99077.95;105860;1276;96810;-68
2022/06/24 05:36:27;;;;;;;14.40;5.80;;;;;;;16.06;58.74;99080.05;105820;1276;108051;-68
2022/06/24 05:38:55;;;;;;;13.70;5.00;;;;;;;16.22;58.72;99083.90;105853;1276;97907;-70
2022/06/24 05:41:23;;;;;;;16.10;5.90;;;;;;;16.41;58.70;99080.11;105868;1276;98420;-69
2022/06/24 05:43:51;;;;;;;14.10;5.60;;;;;;;16.72;58.47;99082.30;105920;1276;112086;-68
2022/06/24 05:46:25;;;;;;;41.50;6.40;;;;;;;17.11;58.44;99085.17;106000;1276;97963;-68
2022/06/24 05:48:53;;;;;;;16.20;5.40;;;;;;;17.51;58.33;99084.61;105910;1276;108362;-68
2022/06/24 05:51:21;;;;;;;13.40;5.10;;;;;;;17.92;58.48;99082.64;105898;1276;97933;-70
2022/06/24 05:56:38;;;;;;;14.90;5.60;;;;;;;18.47;58.04;99083.41;105919;1276;112974;-69
2022/06/24 05:59:16;;;;;;;12.00;4.30;;;;;;;18.63;57.91;99084.61;105945;1276;97510;-72
2022/06/24 06:01:45;;;;;;;10.20;5.00;;;;;;;18.77;57.82;99085.70;105929;1276;107730;-69
2022/06/24 06:04:13;;;;;;;10.80;4.70;;;;;;;18.90;57.83;99087.34;105965;1276;97986;-69
2022/06/24 06:06:41;;;;;;;12.90;4.50;;;;;;;19.04;57.78;99084.79;105983;1276;97973;-70
2022/06/24 06:09:10;;;;;;;12.30;4.70;;;;;;;19.21;57.63;99080.79;106061;1276;111478;-69
2022/06/24 06:11:38;;;;;;;11.40;5.10;;;;;;;19.40;57.62;99083.89;105993;1276;96665;-70
2022/06/24 06:14:06;;;;;;;11.50;4.60;;;;;;;19.56;57.57;99085.38;105988;1276;107756;-68
2022/06/24 06:16:34;;;;;;;13.40;5.40;;;;;;;19.74;57.54;99089.16;105879;1276;97541;-70
2022/06/24 06:19:04;;;;;;;13.50;4.80;;;;;;;19.92;57.54;99088.70;105956;1276;97988;-68
2022/06/24 06:21:31;;;;;;;15.50;6.40;;;;;;;20.07;57.43;99082.40;105997;1276;112003;-68
2022/06/24 06:24:01;;;;;;;15.90;6.00;;;;;;;20.23;57.12;99082.68;105994;1276;97903;-68
2022/06/24 06:26:30;;;;;;;16.60;6.80;;;;;;;20.39;57.24;99081.30;105985;1276;108354;-68
2022/06/24 06:28:59;;;;;;;16.60;6.80;;;;;;;20.56;56.93;99077.92;105887;1276;98024;-67
2022/06/24 06:31:28;;;;;;;17.80;6.60;;;;;;;20.76;56.94;99080.73;105978;1276;97849;-69
2022/06/24 06:33:56;;;;;;;14.80;5.80;;;;;;;20.92;56.76;99078.83;106007;1278;112090;-69
2022/06/24 06:36:24;;;;;;;15.80;5.80;;;;;;;21.10;56.47;99080.78;105909;1278;96485;-69
2022/06/24 06:38:52;;;;;;;15.70;6.30;;;;;;;21.31;56.49;99077.21;105948;1276;108155;-70
2022/06/24 06:41:19;;;;;;;15.00;6.20;;;;;;;21.55;56.44;99079.16;105902;1276;97789;-69
2022/06/24 06:43:47;;;;;;;17.10;5.80;;;;;;;21.79;56.49;99081.73;105949;1276;95213;-69
2022/06/24 06:46:15;;;;;;;12.80;5.70;;;;;;;22.06;56.29;99081.96;105907;1276;111488;-70
2022/06/24 06:48:43;;;;;;;14.80;5.70;;;;;;;22.28;56.06;99082.15;106021;1276;97995;-70
2022/06/24 06:51:11;;;;;;;9.70;4.60;;;;;;;22.52;55.71;99079.52;106105;1276;107744;-70
2022/06/24 06:53:41;;;;;;;13.30;5.90;;;;;;;22.72;55.54;99071.67;106004;1276;97881;-68
2022/06/24 06:56:09;;;;;;;10.80;5.10;;;;;;;22.86;55.48;99078.20;105909;1276;97991;-68
2022/06/24 06:58:39;;;;;;;13.60;5.30;;;;;;;23.20;55.18;99075.69;105888;1276;111853;-68
2022/06/24 07:01:09;;;;;;;14.90;5.10;;;;;;;23.86;55.05;99075.02;105905;1276;96825;-68
2022/06/24 07:03:39;;;;;;;15.10;5.20;;;;;;;25.34;53.40;99067.23;105932;1276;109151;-69
2022/06/24 07:06:08;;;;;;;16.10;5.30;;;;;;;27.20;52.47;99064.86;105935;1276;97921;-69
2022/06/24 07:08:36;;;;;;;15.60;5.20;;;;;;;29.12;52.21;99061.48;105950;1276;95193;-69
2022/06/24 07:11:14;;;;;;;12.80;4.40;;;;;;;31.05;51.90;99061.92;105873;1276;111406;-69
2022/06/24 07:13:41;;;;;;;13.80;4.90;;;;;;;32.74;52.04;99061.92;105869;1276;98330;-68
2022/06/24 07:16:12;;;;;;;18.80;5.80;;;;;;;33.50;50.92;99061.50;105925;1276;108837;-68
2022/06/24 07:18:40;;;;;;;13.90;5.30;;;;;;;34.30;50.46;99062.86;105942;1277;97993;-70
2022/06/24 07:21:13;;;;;;;14.20;5.80;;;;;;;35.42;49.82;99057.73;105930;1276;97868;-71
2022/06/24 07:23:43;;;;;;;13.10;5.20;;;;;;;36.64;49.25;99061.86;105877;1276;111979;-71
2022/06/24 07:26:11;;;;;;;15.90;5.50;;;;;;;37.73;48.78;99060.05;105969;1276;97977;-69
2022/06/24 07:28:41;;;;;;;14.10;6.20;;;;;;;38.78;47.91;99060.23;105897;1276;107748;-68
2022/06/24 07:31:26;;;;;;;13.70;6.40;;;;;;;39.88;47.20;99059.58;105893;1276;96591;-68
2022/06/24 07:33:56;;;;;;;12.50;6.00;;;;;;;40.69;45.95;99063.19;105908;1276;97883;-68
2022/06/24 07:36:24;;;;;;;13.90;6.30;;;;;;;40.74;43.53;99059.63;105958;1276;112056;-68
2022/06/24 07:38:54;;;;;;;15.00;6.60;;;;;;;39.59;40.92;99057.80;106026;1276;98356;-69
2022/06/24 07:41:24;;;;;;;16.30;8.00;;;;;;;39.73;41.99;99055.22;105869;1277;107751;-70
2022/06/24 07:43:54;;;;;;;12.50;6.90;;;;;;;40.61;41.65;99057.02;105797;1277;97903;-69
2022/06/24 07:46:22;;;;;;;18.80;7.30;;;;;;;41.11;40.44;99056.11;105966;1276;95305;-70
2022/06/24 07:48:52;;;;;;;12.10;5.80;;;;;;;41.74;40.26;99049.70;105946;1276;110917;-70
2022/06/24 07:51:28;;;;;;;14.00;7.20;;;;;;;41.77;38.57;99052.27;105913;1277;98353;-71
2022/06/24 07:53:58;;;;;;;15.30;5.90;;;;;;;41.94;38.17;99050.61;105935;1276;107477;-71
2022/06/24 07:59:12;;;;;;;12.30;6.20;;;;;;;42.89;36.94;99038.02;105930;1276;97873;-70
2022/06/24 08:01:40;;;;;;;12.60;6.40;;;;;;;42.16;33.05;99035.91;106040;1276;111465;-70
2022/06/24 08:04:08;;;;;;;11.80;5.50;;;;;;;41.33;33.48;99034.94;106086;1276;95843;-70
2022/06/24 08:06:40;;;;;;;9.20;3.70;;;;;;;41.50;33.57;99036.52;105942;1276;107695;-70
2022/06/24 08:09:10;;;;;;;8.80;3.90;;;;;;;41.13;30.90;99039.05;106156;1276;99021;-69
2022/06/24 08:11:38;;;;;;;11.00;3.80;;;;;;;39.84;29.84;99032.15;106054;1276;97990;-69
2022/06/24 08:14:09;;;;;;;7.20;3.20;;;;;;;39.11;29.30;99033.04;105977;1276;111395;-69
2022/06/24 08:16:37;;;;;;;6.00;3.30;;;;;;;38.45;27.61;99033.11;105979;1277;97979;-67
2022/06/24 08:19:11;;;;;;;6.20;3.00;;;;;;;37.33;26.87;99031.11;105940;1277;107845;-69
2022/06/24 08:21:39;;;;;;;4.00;2.70;;;;;;;36.40;24.94;99031.48;105956;1278;96683;-68
2022/06/24 08:24:07;;;;;;;8.10;3.10;;;;;;;35.36;25.61;99029.89;105987;1277;97979;-68
2022/06/24 08:26:35;;;;;;;8.30;3.90;;;;;;;35.47;27.15;99029.11;105956;1277;112022;-69
2022/06/24 08:29:06;;;;;;;8.20;3.30;;;;;;;36.34;27.26;99021.89;106066;1277;98393;-69
2022/06/24 08:31:35;;;;;;;2.90;2.50;;;;;;;37.09;27.40;99017.54;106006;1277;107700;-68
2022/06/24 08:34:03;;;;;;;5.40;3.00;;;;;;;37.81;27.54;99012.42;105817;1277;95296;-68
2022/06/24 08:36:31;;;;;;;7.20;3.00;;;;;;;38.26;26.93;99007.59;105938;1277;98068;-70
2022/06/24 08:38:59;;;;;;;4.00;2.30;;;;;;;38.08;25.26;99003.67;105842;1277;111356;-70
2022/06/24 08:41:27;;;;;;;4.20;2.70;;;;;;;36.93;25.10;99013.00;105940;1278;98546;-69
2022/06/24 08:43:58;;;;;;;5.70;2.60;;;;;;;37.15;26.25;99012.52;105932;1277;107550;-68
2022/06/24 08:46:26;;;;;;;5.80;3.40;;;;;;;37.49;25.61;99005.15;105888;1277;98395;-69
2022/06/24 08:48:58;;;;;;;9.40;2.70;;;;;;;37.37;25.09;99007.95;105887;1277;95187;-69
2022/06/24 08:51:30;;;;;;;10.90;2.60;;;;;;;37.33;25.63;99007.54;105887;1277;111304;-68
2022/06/24 08:54:01;;;;;;;4.90;2.80;;;;;;;37.67;25.40;99008.46;105944;1278;98036;-69
2022/06/24 08:56:53;;;;;;;;;;;;;;;37.20;24.97;99008.14;105923;1277;108495;-69
2022/06/24 08:59:21;;;;;;;11.00;4.30;;;;;;;36.39;24.10;99007.20;105899;1278;98577;-69
2022/06/24 09:01:51;;;;;;;8.40;2.90;;;;;;;36.41;25.08;99003.64;105944;1276;97866;-69
2022/06/24 09:04:23;;;;;;;7.50;2.70;;;;;;;36.78;25.17;99003.23;105844;1277;112705;-69
2022/06/24 09:06:51;;;;;;;5.90;3.20;;;;;;;36.60;25.16;98994.30;105891;1277;98366;-69
2022/06/24 09:09:25;;;;;;;8.60;2.80;;;;;;;36.64;25.17;98992.90;105954;1276;109681;-69
2022/06/24 09:11:57;;;;;;;8.80;2.80;;;;;;;36.99;25.24;98992.45;105942;1277;97983;-69
2022/06/24 09:14:44;;;;;;;4.60;2.70;;;;;;;37.12;25.36;98992.18;105915;1277;97857;-69
2022/06/24 09:17:12;;;;;;;10.60;3.60;;;;;;;36.86;25.11;98990.77;105890;1278;112050;-71
2022/06/24 09:19:42;;;;;;;5.10;2.40;;;;;;;36.91;25.14;98993.34;105885;1277;95692;-69
2022/06/24 09:22:10;;;;;;;7.30;2.60;;;;;;;36.69;25.10;98992.04;105863;1277;107779;-71
2022/06/24 09:24:47;;;;;;;9.10;2.70;;;;;;;36.67;25.07;98993.33;105814;1277;97917;-69
2022/06/24 09:27:15;;;;;;;5.00;2.70;;;;;;;36.59;25.15;98995.46;105841;1277;97934;-69
2022/06/24 09:29:48;;;;;;;9.40;3.50;;;;;;;36.43;25.07;98987.46;105829;1278;112441;-69
2022/06/24 09:32:16;;;;;;;2.70;2.20;;;;;;;36.58;24.87;98985.19;105676;1277;98513;-69
2022/06/24 09:35:06;;;;;;;4.60;2.60;;;;;;;36.35;24.40;98983.23;105766;1277;107826;-69
2022/06/24 09:37:39;;;;;;;5.00;2.40;;;;;;;36.40;25.00;98974.96;105814;1277;97966;-69
2022/06/24 09:40:24;;;;;;;7.40;2.50;;;;;;;36.55;24.78;98971.45;105819;1277;97964;-69
2022/06/24 09:42:56;;;;;;;6.90;2.80;;;;;;;36.56;24.84;98973.52;105868;1277;112321;-69
2022/06/24 09:45:45;;;;;;;4.30;2.60;;;;;;;36.77;25.14;98968.44;105947;1278;97901;-70
2022/06/24 09:48:38;;;;;;;5.00;2.30;;;;;;;36.46;24.57;98971.73;106037;1277;107343;-69
2022/06/24 09:51:08;;;;;;;4.50;2.70;;;;;;;36.39;24.79;98964.55;105963;1277;95207;-69
2022/06/24 09:53:40;;;;;;;6.60;2.80;;;;;;;36.38;24.88;98964.49;105965;1278;97860;-70
2022/06/24 09:56:11;;;;;;;6.70;2.90;;;;;;;36.35;24.83;98961.63;105969;1276;112019;-69
2022/06/24 10:00:40;;;;;;;8.40;2.80;;;;;;;36.36;24.98;98958.41;106014;1277;95679;-69
2022/06/24 10:01:38;;;;;;;10.30;3.30;;;;;;;36.27;24.61;98956.85;105926;1277;108853;-70
2022/06/24 10:04:14;;;;;;;13.00;2.90;;;;;;;35.94;24.61;98956.66;105948;1277;97849;-70
2022/06/24 10:06:46;;;;;;;8.20;3.10;;;;;;;35.57;24.70;98954.00;105960;1277;97956;-70
2022/06/24 10:09:25;;;;;;;8.50;2.80;;;;;;;35.26;24.72;98952.81;105931;1278;111314;-68
2022/06/24 10:12:01;;;;;;;9.90;2.80;;;;;;;34.88;24.56;98947.61;105974;1277;98395;-69
2022/06/24 10:14:33;;;;;;;7.10;2.80;;;;;;;34.55;24.61;98944.74;105937;1277;107444;-70
2022/06/24 10:17:03;;;;;;;9.40;2.80;;;;;;;34.21;24.62;98942.98;105956;1277;96316;-70
2022/06/24 10:19:34;;;;;;;7.10;2.70;;;;;;;33.91;24.99;98937.73;105925;1277;96441;-70
2022/06/24 10:22:02;;;;;;;7.30;2.80;;;;;;;33.64;24.78;98931.79;105923;1276;112063;-69
2022/06/24 10:24:43;;;;;;;11.50;3.00;;;;;;;33.45;24.82;98927.66;105900;1276;97999;-70
2022/06/24 10:27:10;;;;;;;3.90;2.70;;;;;;;33.18;24.91;98936.38;105911;1277;107737;-69
2022/06/24 10:29:39;;;;;;;5.70;2.80;;;;;;;32.96;24.89;98933.02;105877;1277;96436;-70
2022/06/24 10:32:08;;;;;;;7.10;2.80;;;;;;;32.82;24.82;98932.17;105914;1276;97903;-69
2022/06/24 10:34:42;;;;;;;6.10;2.90;;;;;;;32.59;25.01;98932.88;105898;1277;111094;-71
2022/06/24 10:37:10;;;;;;;6.40;2.90;;;;;;;32.26;24.72;98932.30;105933;1276;97842;-70
2022/06/24 10:39:49;;;;;;;7.60;2.60;;;;;;;32.01;24.94;98926.27;105970;1276;107726;-70
2022/06/24 10:42:22;;;;;;;8.90;4.40;;;;;;;31.46;24.57;98925.42;105942;1277;97995;-71
2022/06/24 10:45:06;;;;;;;7.30;3.00;;;;;;;31.21;24.99;98920.60;106031;1277;96164;-70
2022/06/24 10:47:34;;;;;;;12.70;3.10;;;;;;;31.13;25.06;98915.15;105973;1277;112476;-70
2022/06/24 10:50:03;;;;;;;7.80;2.70;;;;;;;31.09;25.15;98919.20;105981;1277;98387;-70
2022/06/24 10:52:37;;;;;;;6.20;2.70;;;;;;;31.02;25.45;98916.05;106000;1276;107664;-70
2022/06/24 10:55:29;;;;;;;11.20;3.00;;;;;;;30.94;25.18;98916.94;106020;1276;97893;-69
2022/06/24 10:58:13;;;;;;;4.00;2.80;;;;;;;30.83;25.52;98909.51;106020;1277;97943;-70
2022/06/24 11:00:48;;;;;;;5.00;2.80;;;;;;;30.68;25.49;98909.45;106005;1276;111430;-70
2022/06/24 11:03:31;;;;;;;5.70;2.40;;;;;;;30.53;25.58;98907.86;106008;1277;96650;-67
2022/06/24 11:06:00;;;;;;;10.00;2.90;;;;;;;30.38;25.46;98908.56;105878;1276;109322;-69
2022/06/24 11:08:28;;;;;;;6.20;2.70;;;;;;;30.22;25.74;98915.23;105935;1276;99131;-70
2022/06/24 11:10:57;;;;;;;4.60;2.50;;;;;;;30.13;25.78;98907.34;105913;1276;97989;-69
2022/06/24 11:13:25;;;;;;;3.00;2.20;;;;;;;30.11;25.87;98904.84;105930;1276;111292;-66
2022/06/24 11:15:58;;;;;;;7.50;2.70;;;;;;;30.16;25.97;98895.55;105936;1276;98363;-65
2022/06/24 11:18:34;;;;;;;7.90;2.80;;;;;;;30.16;26.05;98905.37;105641;1277;108106;-66
2022/06/24 11:21:09;;;;;;;7.10;3.00;;;;;;;30.21;26.34;98903.70;105869;1276;97964;-68
2022/06/24 11:23:41;;;;;;;11.10;2.90;;;;;;;30.25;26.43;98899.39;105941;1276;97992;-69
2022/06/24 11:26:18;;;;;;;10.90;3.20;;;;;;;30.26;26.43;98893.75;105879;1276;112390;-67
2022/06/24 11:28:54;;;;;;;4.40;3.00;;;;;;;30.23;26.37;98896.94;105963;1276;95816;-72
2022/06/24 11:31:30;;;;;;;4.60;2.80;;;;;;;30.18;26.57;98894.81;105944;1276;108145;-66
2022/06/24 11:33:58;;;;;;;6.80;2.70;;;;;;;30.15;26.57;98895.43;105889;1277;97957;-68
2022/06/24 11:36:31;;;;;;;5.10;3.00;;;;;;;30.04;26.51;98892.96;105991;1276;97842;-70
2022/06/24 11:39:06;;;;;;;8.10;3.10;;;;;;;29.86;26.72;98891.30;105938;1277;111637;-66
2022/06/24 11:41:48;;;;;;;7.00;3.00;;;;;;;29.89;26.82;98888.67;105948;1276;96253;-68